Time;durP1;ratioP1;P1;durP2;ratioP2;P2;SDS_P1;SDS_P2;PMS_P1;PMS_P2;Temp;Humidity;BMP_temperature;BMP_pressure;BME280_temperature;BME280_humidity;BME280_pressure;Samples;Min_cycle;Max_cycle;Signal;HPM_P1;HPM_P2
2022/08/07 00:01:03;;;;;;;10.80;8.80;;;;;;;17.69;100.00;96919.91;5030442;28;103072;-62
2022/08/07 00:03:32;;;;;;;9.80;8.80;;;;;;;17.62;100.00;96922.13;5029383;28;101977;-62
2022/08/07 00:06:00;;;;;;;9.87;8.83;;;;;;;17.63;100.00;96923.72;5029332;28;105396;-62
2022/08/07 00:08:28;;;;;;;8.83;8.03;;;;;;;17.60;100.00;96923.50;5028984;28;104089;-62
2022/08/07 00:10:55;;;;;;;9.00;8.20;;;;;;;17.58;100.00;96920.25;5029544;28;101977;-62
2022/08/07 00:13:22;;;;;;;9.17;8.37;;;;;;;17.55;100.00;96920.84;5032359;28;105932;-62
2022/08/07 00:15:50;;;;;;;8.73;7.97;;;;;;;17.56;100.00;96917.84;5029419;28;101901;-62
2022/08/07 00:18:19;;;;;;;8.23;7.43;;;;;;;17.62;100.00;96915.94;5029477;28;103626;-62
2022/08/07 00:20:49;;;;;;;8.17;7.30;;;;;;;17.59;100.00;96916.47;5028751;28;105453;-62
2022/08/07 00:23:17;;;;;;;8.43;7.73;;;;;;;17.46;100.00;96922.50;5028701;28;101824;-62
2022/08/07 00:25:45;;;;;;;8.10;6.80;;;;;;;17.51;100.00;96917.09;5029135;28;105585;-62
2022/08/07 00:28:12;;;;;;;7.20;6.33;;;;;;;17.45;100.00;96923.59;5028465;28;105522;-62
2022/08/07 00:30:39;;;;;;;8.17;7.40;;;;;;;17.44;100.00;96913.94;5029251;28;101835;-62
2022/08/07 00:33:06;;;;;;;9.03;7.30;;;;;;;17.39;100.00;96912.06;5029006;28;105550;-62
2022/08/07 00:35:33;;;;;;;8.43;7.47;;;;;;;17.32;100.00;96903.50;5032038;28;105223;-62
2022/08/07 00:38:02;;;;;;;8.00;6.90;;;;;;;17.28;100.00;96902.44;5029235;28;105349;-62
2022/08/07 00:40:30;;;;;;;7.50;6.63;;;;;;;17.23;100.00;96899.00;5028365;28;105904;-62
2022/08/07 00:42:57;;;;;;;7.20;6.53;;;;;;;17.23;100.00;96897.09;5028988;28;101969;-62
2022/08/07 00:45:24;;;;;;;7.20;6.50;;;;;;;17.27;100.00;96902.75;5028963;28;105481;-62
2022/08/07 00:47:52;;;;;;;8.20;6.70;;;;;;;17.29;100.00;96903.25;5028354;28;104158;-62
2022/08/07 00:50:19;;;;;;;6.90;6.20;;;;;;;17.23;100.00;96899.00;5029020;28;101952;-62
2022/08/07 00:52:46;;;;;;;6.90;6.30;;;;;;;17.21;100.00;96903.84;5028936;28;105483;-62
2022/08/07 00:55:16;;;;;;;6.50;5.87;;;;;;;17.14;100.00;96909.53;5028129;28;105450;-62
2022/08/07 00:57:44;;;;;;;6.63;6.00;;;;;;;17.17;100.00;96897.44;5031237;28;101751;-62
2022/08/07 01:00:12;;;;;;;7.37;6.30;;;;;;;17.17;100.00;96900.91;5028133;28;105660;-62
2022/08/07 01:02:42;;;;;;;7.13;6.40;;;;;;;17.15;100.00;96896.88;5028697;28;101788;-62
2022/08/07 01:05:11;;;;;;;6.67;6.17;;;;;;;17.09;100.00;96898.81;5028786;28;105321;-62
2022/08/07 01:07:39;;;;;;;6.83;6.13;;;;;;;17.11;100.00;96898.56;5028150;28;104323;-62
2022/08/07 01:10:07;;;;;;;7.83;6.43;;;;;;;17.09;100.00;96896.13;5028686;28;101966;-62
2022/08/07 01:12:37;;;;;;;6.87;6.13;;;;;;;17.11;100.00;96893.97;5028695;28;105075;-62
2022/08/07 01:15:06;;;;;;;7.20;6.50;;;;;;;17.12;100.00;96889.41;5029140;28;103862;-62
2022/08/07 01:17:34;;;;;;;6.93;6.33;;;;;;;17.02;100.00;96884.09;5028684;28;101858;-62
2022/08/07 01:20:09;;;;;;;7.67;6.53;;;;;;;17.03;100.00;96891.06;5031596;28;103648;-62
2022/08/07 01:22:39;;;;;;;7.00;6.30;;;;;;;17.02;100.00;96889.47;5028521;28;101865;-62
2022/08/07 01:25:10;;;;;;;7.30;6.40;;;;;;;16.99;100.00;96887.31;5027986;28;105051;-62
2022/08/07 01:27:38;;;;;;;6.73;5.93;;;;;;;16.90;100.00;96876.34;5027928;28;105289;-62
2022/08/07 01:30:08;;;;;;;6.63;5.90;;;;;;;16.96;100.00;96890.56;5028378;28;101907;-62
2022/08/07 01:32:35;;;;;;;7.03;6.33;;;;;;;16.84;100.00;96876.69;5028470;28;104960;-62
2022/08/07 01:35:03;;;;;;;6.93;6.23;;;;;;;16.85;100.00;96878.28;5028002;28;105743;-62
2022/08/07 01:37:31;;;;;;;8.30;6.20;;;;;;;16.84;100.00;96876.69;5028497;28;101802;-62
2022/08/07 01:40:03;;;;;;;6.80;6.10;;;;;;;16.82;100.00;96878.81;5028534;28;105452;-62
2022/08/07 01:42:33;;;;;;;6.90;6.30;;;;;;;16.85;100.00;96867.53;5030708;27;102132;-62
2022/08/07 01:45:02;;;;;;;6.63;6.10;;;;;;;16.88;100.00;96870.47;5028169;28;104071;-62
2022/08/07 01:47:30;;;;;;;7.27;6.57;;;;;;;16.81;100.00;96872.66;5027765;28;105099;-62
2022/08/07 01:49:57;;;;;;;7.37;6.73;;;;;;;16.76;100.00;96864.63;5028224;28;101888;-62
2022/08/07 01:52:31;;;;;;;6.77;6.23;;;;;;;16.76;100.00;96864.63;5028335;28;105315;-62
2022/08/07 01:55:03;;;;;;;7.77;6.50;;;;;;;16.82;100.00;96863.53;5027407;28;105769;-62
2022/08/07 01:57:39;;;;;;;7.20;6.50;;;;;;;16.85;100.00;96862.94;5028309;28;101962;-62
2022/08/07 02:00:10;;;;;;;7.77;6.97;;;;;;;16.78;100.00;96867.06;5028101;28;105218;-62
2022/08/07 02:02:50;;;;;;;6.87;6.10;;;;;;;16.82;100.00;96858.16;5030869;28;105489;-62
2022/08/07 02:05:23;;;;;;;6.43;5.83;;;;;;;16.84;100.00;96860.56;5028019;28;105016;-62
2022/08/07 02:07:54;;;;;;;6.23;5.73;;;;;;;16.86;100.00;96863.75;5027379;28;105115;-62
2022/08/07 02:10:38;;;;;;;5.93;5.43;;;;;;;16.95;100.00;96865.56;5031132;28;101875;-62
2022/08/07 02:13:08;;;;;;;5.87;5.37;;;;;;;16.91;100.00;96861.03;5065257;27;105249;-62
2022/08/07 02:15:49;;;;;;;6.17;5.67;;;;;;;16.86;100.00;96869.13;5030640;28;105475;-62
2022/08/07 02:18:19;;;;;;;5.63;4.93;;;;;;;16.88;100.00;96866.97;5031371;28;101971;-62
2022/08/07 02:20:49;;;;;;;6.73;5.37;;;;;;;16.91;100.00;96864.56;5032562;28;102294;-62
2022/08/07 02:23:18;;;;;;;5.17;4.77;;;;;;;16.86;100.00;96864.56;5030190;28;105701;-62
2022/08/07 02:25:47;;;;;;;5.40;5.00;;;;;;;16.89;100.00;96857.84;5034704;28;101909;-62
2022/08/07 02:28:18;;;;;;;5.07;4.67;;;;;;;16.88;100.00;96853.53;5030641;28;105023;-62
2022/08/07 02:30:47;;;;;;;5.27;4.87;;;;;;;16.91;100.00;96853.81;5031212;28;101883;-62
2022/08/07 02:33:18;;;;;;;5.33;4.80;;;;;;;16.91;100.00;96856.50;5030998;28;104717;-62
2022/08/07 02:35:48;;;;;;;7.03;5.07;;;;;;;16.80;100.00;96848.75;5030308;28;105903;-62
2022/08/07 02:38:16;;;;;;;4.93;4.53;;;;;;;16.78;100.00;96848.25;5031010;28;101910;-62
2022/08/07 02:40:45;;;;;;;4.83;4.37;;;;;;;16.82;100.00;96849.28;5031131;28;105186;-62
2022/08/07 02:43:16;;;;;;;4.50;4.10;;;;;;;16.81;100.00;96842.31;5030311;28;105760;-62
2022/08/07 02:45:46;;;;;;;4.90;4.20;;;;;;;16.73;100.00;96843.69;5030606;28;101844;-62
2022/08/07 02:48:14;;;;;;;4.60;4.30;;;;;;;16.70;100.00;96838.06;5033779;28;105080;-62
2022/08/07 02:50:43;;;;;;;4.53;4.13;;;;;;;16.77;100.00;96841.25;5031035;28;101988;-62
2022/08/07 02:53:15;;;;;;;4.30;4.00;;;;;;;16.75;100.00;96833.50;5030789;28;104861;-62
2022/08/07 02:55:46;;;;;;;4.23;3.93;;;;;;;16.81;100.00;96826.19;5029990;28;104789;-62
2022/08/07 02:58:20;;;;;;;4.30;3.90;;;;;;;16.79;100.00;96825.69;5030856;28;101832;-62
2022/08/07 03:00:51;;;;;;;3.90;3.60;;;;;;;16.78;100.00;96829.44;5030743;28;105577;-62
2022/08/07 03:03:19;;;;;;;4.57;3.93;;;;;;;16.75;100.00;96833.50;5030142;28;105046;-62
2022/08/07 03:05:50;;;;;;;4.47;4.07;;;;;;;16.79;100.00;96825.69;5030427;28;102421;-62
2022/08/07 03:08:19;;;;;;;4.73;3.90;;;;;;;16.84;100.00;96834.50;5030562;28;104121;-62
2022/08/07 03:10:49;;;;;;;4.00;3.70;;;;;;;16.75;100.00;96830.00;5033369;28;105097;-62
2022/08/07 03:13:24;;;;;;;3.50;3.30;;;;;;;16.73;100.00;96824.09;5014879;28;104819;-62
2022/08/07 03:15:54;;;;;;;3.70;3.40;;;;;;;16.73;100.00;96824.09;5029517;28;105457;-62
2022/08/07 03:18:22;;;;;;;3.87;3.57;;;;;;;16.71;100.00;96823.56;5030548;28;101882;-62
2022/08/07 03:20:51;;;;;;;4.03;3.77;;;;;;;16.66;100.00;96826.28;5029110;27;103315;-62
2022/08/07 03:23:20;;;;;;;3.87;3.57;;;;;;;16.61;100.00;96820.94;5029437;28;105446;-62
2022/08/07 03:25:49;;;;;;;4.13;3.83;;;;;;;16.66;100.00;96819.03;5029965;28;101906;-62
2022/08/07 03:28:18;;;;;;;3.83;3.53;;;;;;;16.76;100.00;96821.66;5030423;28;104497;-62
2022/08/07 03:30:48;;;;;;;4.10;3.70;;;;;;;16.70;100.00;96820.09;5029365;28;105863;-62
2022/08/07 03:33:17;;;;;;;4.10;3.80;;;;;;;16.69;100.00;96821.19;5033618;28;102029;-62
2022/08/07 03:35:47;;;;;;;4.93;4.03;;;;;;;16.65;100.00;96819.31;5029716;28;105649;-62
2022/08/07 03:38:17;;;;;;;4.93;3.87;;;;;;;16.68;100.00;96824.91;5030198;28;101987;-62
2022/08/07 03:40:45;;;;;;;4.37;3.97;;;;;;;16.65;100.00;96825.50;5029769;28;106409;-62
2022/08/07 03:43:15;;;;;;;3.83;3.53;;;;;;;16.67;100.00;96823.31;5029575;28;105258;-62
2022/08/07 03:45:50;;;;;;;4.90;4.50;;;;;;;16.65;100.00;96822.81;5029948;28;101873;-62
2022/08/07 03:48:22;;;;;;;4.97;3.77;;;;;;;16.71;100.00;96823.56;5029984;28;105403;-62
2022/08/07 03:50:52;;;;;;;5.00;4.50;;;;;;;16.64;100.00;96826.56;5029165;28;105017;-62
2022/08/07 03:53:20;;;;;;;4.60;4.20;;;;;;;16.58;100.00;96824.97;5033478;28;101937;-62
2022/08/07 03:55:49;;;;;;;4.60;4.13;;;;;;;16.61;100.00;96824.44;5029135;28;105291;-62
2022/08/07 03:58:18;;;;;;;4.73;4.17;;;;;;;16.61;100.00;96823.63;5063524;27;101961;-62
2022/08/07 04:00:48;;;;;;;4.43;4.10;;;;;;;16.59;100.00;96831.97;5029682;28;105021;-62
2022/08/07 04:03:17;;;;;;;4.73;4.30;;;;;;;16.65;100.00;96824.69;5030337;28;102567;-62
2022/08/07 04:05:45;;;;;;;5.40;4.37;;;;;;;16.55;100.00;96820.16;5029781;28;101861;-62
2022/08/07 04:08:20;;;;;;;4.53;4.13;;;;;;;16.57;100.00;96817.22;5029442;28;105003;-62
2022/08/07 04:10:49;;;;;;;4.40;4.00;;;;;;;16.60;100.00;96820.16;5028938;28;105540;-62
2022/08/07 04:13:17;;;;;;;4.60;4.20;;;;;;;16.59;100.00;96815.03;5029585;28;101887;-62
2022/08/07 04:15:45;;;;;;;4.57;4.17;;;;;;;16.58;100.00;96816.13;5032052;28;105081;-62
2022/08/07 04:18:14;;;;;;;5.20;4.13;;;;;;;16.68;100.00;96819.53;5029462;28;101946;-62
2022/08/07 04:20:44;;;;;;;4.50;4.10;;;;;;;16.66;100.00;96816.34;5029249;28;106005;-62
2022/08/07 04:23:13;;;;;;;4.50;4.10;;;;;;;16.70;100.00;96812.03;5028266;28;105101;-62
2022/08/07 04:25:42;;;;;;;4.27;3.97;;;;;;;16.76;100.00;96818.97;5029198;28;101953;-62
2022/08/07 04:28:12;;;;;;;4.73;4.07;;;;;;;16.75;100.00;96817.38;5028950;28;105669;-62
2022/08/07 04:30:40;;;;;;;4.73;3.97;;;;;;;16.72;100.00;96822.47;5028498;28;105337;-62
2022/08/07 04:33:13;;;;;;;5.87;4.17;;;;;;;16.79;100.00;96831.84;5028857;27;101803;-62
2022/08/07 04:35:46;;;;;;;4.00;3.70;;;;;;;16.82;100.00;96831.28;5029375;28;105204;-62
2022/08/07 04:38:16;;;;;;;4.30;3.90;;;;;;;16.79;100.00;96831.84;5032009;28;105393;-62
2022/08/07 04:40:49;;;;;;;4.30;4.00;;;;;;;16.76;100.00;96831.59;5029039;28;105195;-62
2022/08/07 04:43:19;;;;;;;4.60;4.20;;;;;;;16.75;100.00;96832.66;5028442;28;105668;-62
2022/08/07 04:45:55;;;;;;;4.87;4.37;;;;;;;16.70;100.00;96827.34;5029175;28;101882;-62
2022/08/07 04:48:31;;;;;;;4.83;4.43;;;;;;;16.72;100.00;96830.53;5029022;28;105280;-62
2022/08/07 04:51:06;;;;;;;6.00;4.63;;;;;;;16.68;100.00;96829.50;5028427;28;103804;-62
2022/08/07 04:53:39;;;;;;;4.83;4.40;;;;;;;16.69;100.00;96833.78;5028809;28;101856;-62
2022/08/07 04:56:18;;;;;;;4.70;4.30;;;;;;;16.79;100.00;96831.84;5028948;28;105010;-62
2022/08/07 04:58:52;;;;;;;4.90;4.33;;;;;;;16.88;100.00;96830.16;5028625;28;103927;-62
2022/08/07 05:01:29;;;;;;;4.50;4.10;;;;;;;16.86;100.00;96832.34;5032486;28;101899;-62
2022/08/07 05:04:06;;;;;;;4.67;4.20;;;;;;;16.87;100.00;96830.44;5027832;28;105123;-62
2022/08/07 05:06:42;;;;;;;4.77;4.37;;;;;;;16.89;100.00;96836.34;5028849;28;102100;-62
2022/08/07 05:09:18;;;;;;;4.83;4.20;;;;;;;16.93;100.00;96826.63;5028672;28;104717;-62
2022/08/07 05:11:49;;;;;;;4.50;4.20;;;;;;;16.95;100.00;96830.66;5028067;28;105983;-62
2022/08/07 05:14:20;;;;;;;4.40;4.10;;;;;;;16.99;100.00;96820.97;5028615;28;101818;-62
2022/08/07 05:16:53;;;;;;;4.70;4.30;;;;;;;17.06;100.00;96823.34;5028672;28;103618;-62
2022/08/07 05:19:23;;;;;;;4.70;4.27;;;;;;;17.06;100.00;96820.66;5028015;28;104215;-62
2022/08/07 05:21:56;;;;;;;4.20;3.90;;;;;;;17.05;100.00;96819.03;5028675;28;102043;-62
2022/08/07 05:24:24;;;;;;;4.93;4.37;;;;;;;17.09;100.00;96823.56;5030983;28;105174;-62
2022/08/07 05:26:59;;;;;;;4.80;4.40;;;;;;;16.99;100.00;96820.13;5028157;28;102013;-62
2022/08/07 05:29:28;;;;;;;4.83;4.40;;;;;;;16.98;100.00;96818.53;5028633;28;104850;-62
2022/08/07 05:31:56;;;;;;;5.83;4.40;;;;;;;16.96;100.00;96826.88;5028056;28;105095;-62
2022/08/07 05:34:29;;;;;;;5.67;4.63;;;;;;;17.08;100.00;96829.22;5028421;28;101863;-62
2022/08/07 05:36:58;;;;;;;3.80;3.50;;;;;;;17.15;100.00;96830.50;5028441;28;105486;-62
2022/08/07 05:39:42;;;;;;;4.33;4.03;;;;;;;17.10;100.00;96827.84;5027587;28;105304;-62
2022/08/07 05:42:10;;;;;;;4.60;4.20;;;;;;;17.15;100.00;96819.75;5028397;28;102076;-62
2022/08/07 05:44:41;;;;;;;5.50;3.97;;;;;;;17.27;100.00;96828.25;5030002;27;105187;-62
2022/08/07 05:47:09;;;;;;;4.40;4.10;;;;;;;17.30;100.00;96821.50;5034825;28;105242;-62
2022/08/07 05:49:37;;;;;;;4.30;3.90;;;;;;;17.33;100.00;96820.97;5031613;28;105121;-62
2022/08/07 05:52:08;;;;;;;5.23;4.00;;;;;;;17.40;100.00;96830.34;5032583;28;102633;-62
2022/08/07 05:54:36;;;;;;;4.20;3.80;;;;;;;17.40;100.00;96818.78;5033303;27;101778;-62
2022/08/07 05:57:04;;;;;;;4.60;4.03;;;;;;;17.30;100.00;96816.13;5031806;28;104824;-62
2022/08/07 05:59:38;;;;;;;4.10;3.80;;;;;;;17.41;100.00;96820.38;5014626;28;105737;-62
2022/08/07 06:02:07;;;;;;;4.13;3.70;;;;;;;17.43;100.00;96816.31;5031570;28;101847;-62
2022/08/07 06:04:39;;;;;;;5.90;4.60;;;;;;;17.51;100.00;96812.22;5031335;28;105084;-62
2022/08/07 06:07:10;;;;;;;4.53;4.13;;;;;;;17.50;100.00;96818.69;5034313;28;105120;-62
2022/08/07 06:09:41;;;;;;;5.10;3.67;;;;;;;17.45;100.00;96814.13;5031676;28;105018;-62
2022/08/07 06:12:09;;;;;;;4.53;3.80;;;;;;;17.51;100.00;96822.97;5030858;28;105098;-62
2022/08/07 06:14:37;;;;;;;4.30;4.00;;;;;;;17.64;100.00;96817.72;5031593;28;101869;-62
2022/08/07 06:17:05;;;;;;;4.20;3.77;;;;;;;17.71;100.00;96822.78;5030874;28;105843;-62
2022/08/07 06:19:36;;;;;;;3.77;3.47;;;;;;;17.81;100.00;96820.78;5030628;28;105158;-62
2022/08/07 06:22:04;;;;;;;4.20;3.90;;;;;;;17.75;100.00;96818.41;5032807;28;101956;-62
2022/08/07 06:24:35;;;;;;;4.10;3.77;;;;;;;17.85;100.00;96823.69;5030959;28;104811;-62
2022/08/07 06:27:02;;;;;;;3.87;3.57;;;;;;;17.93;100.00;96820.41;5030615;28;105583;-62
2022/08/07 06:29:32;;;;;;;4.10;3.70;;;;;;;18.03;100.00;96817.59;5034419;28;101957;-62
2022/08/07 06:32:00;;;;;;;4.33;3.97;;;;;;;18.06;100.00;96814.31;5030483;28;106246;-62
2022/08/07 06:34:28;;;;;;;3.90;3.60;;;;;;;17.88;100.00;96813.16;5032607;28;101893;-62
2022/08/07 06:36:55;;;;;;;4.03;3.73;;;;;;;17.93;100.00;96820.41;5031078;28;105005;-62
2022/08/07 06:39:30;;;;;;;3.90;3.60;;;;;;;18.07;100.00;96821.31;5030377;28;105172;-62
2022/08/07 06:42:04;;;;;;;4.10;3.80;;;;;;;18.05;100.00;96818.09;5031115;28;102157;-62
2022/08/07 06:45:02;;;;;;;4.47;4.07;;;;;;;17.96;100.00;96817.13;5027201;27;103490;-62
2022/08/07 06:47:29;;;;;;;3.97;3.67;;;;;;;17.91;100.00;96817.16;5030142;28;105109;-62
2022/08/07 06:49:58;;;;;;;4.50;4.10;;;;;;;17.88;100.00;96818.53;5030864;28;102030;-62
2022/08/07 06:52:31;;;;;;;4.10;3.80;;;;;;;17.82;100.00;96824.28;5033519;28;105255;-62
2022/08/07 06:55:01;;;;;;;4.20;3.80;;;;;;;17.72;100.00;96819.78;5030750;27;101837;-62
2022/08/07 06:57:33;;;;;;;6.10;4.13;;;;;;;17.72;100.00;96819.00;5064792;27;105243;-62
2022/08/07 07:00:01;;;;;;;4.47;4.10;;;;;;;17.74;100.00;96822.19;5030080;28;105309;-62
2022/08/07 07:02:31;;;;;;;4.63;4.23;;;;;;;17.77;100.00;96818.97;5030390;28;101828;-62
2022/08/07 07:04:58;;;;;;;5.27;4.20;;;;;;;17.77;100.00;96833.19;5030549;28;105095;-62
2022/08/07 07:07:26;;;;;;;5.13;4.70;;;;;;;17.82;100.00;96835.03;5030065;28;104050;-62
2022/08/07 07:09:53;;;;;;;4.90;4.50;;;;;;;18.01;100.00;96833.22;5030520;28;102100;-62
2022/08/07 07:12:30;;;;;;;5.53;5.13;;;;;;;18.01;100.00;96833.22;5030606;28;104785;-62
2022/08/07 07:15:03;;;;;;;4.70;4.30;;;;;;;18.10;100.00;96828.81;5033225;28;105309;-62
2022/08/07 07:17:37;;;;;;;4.60;4.30;;;;;;;18.29;100.00;96826.97;5030463;28;104144;-62
2022/08/07 07:20:10;;;;;;;4.80;4.40;;;;;;;18.29;100.00;96822.38;5029938;28;103815;-62
2022/08/07 07:22:39;;;;;;;4.53;4.13;;;;;;;18.50;100.00;96823.75;5030210;28;101966;-62
2022/08/07 07:25:08;;;;;;;5.07;4.53;;;;;;;18.55;100.00;96821.00;5030235;28;105292;-62
2022/08/07 07:27:40;;;;;;;5.17;4.80;;;;;;;18.60;100.00;96810.16;5029538;28;105819;-62
2022/08/07 07:30:12;;;;;;;5.50;4.97;;;;;;;18.65;100.00;96817.38;5030257;28;101990;-62
2022/08/07 07:32:41;;;;;;;5.10;4.80;;;;;;;18.68;100.00;96811.38;5064172;27;105375;-62
2022/08/07 07:35:11;;;;;;;5.33;4.93;;;;;;;18.71;100.00;96811.63;5029512;28;104062;-62
2022/08/07 07:37:41;;;;;;;5.43;5.03;;;;;;;18.74;100.00;96812.94;5033515;28;101871;-62
2022/08/07 07:40:15;;;;;;;5.17;4.77;;;;;;;18.80;100.00;96811.78;5029552;28;106250;-62
2022/08/07 07:42:44;;;;;;;5.33;4.90;;;;;;;18.88;100.00;96808.41;5029981;28;101949;-62
2022/08/07 07:45:16;;;;;;;5.57;5.13;;;;;;;18.68;100.00;96806.00;5029991;28;104963;-62
2022/08/07 07:47:45;;;;;;;4.97;4.47;;;;;;;18.78;100.00;96806.66;5029134;28;105136;-62
2022/08/07 07:50:13;;;;;;;4.53;4.13;;;;;;;19.11;100.00;96804.81;5031408;28;102231;-62
2022/08/07 07:52:44;;;;;;;5.30;4.83;;;;;;;19.36;100.00;96804.44;5029605;28;105304;-62
2022/08/07 07:55:12;;;;;;;6.03;5.53;;;;;;;19.58;100.00;96805.41;5029288;28;103998;-62
2022/08/07 07:57:40;;;;;;;5.20;4.80;;;;;;;19.66;100.00;96802.00;5029900;28;101969;-62
2022/08/07 08:00:09;;;;;;;4.97;4.57;;;;;;;19.69;100.00;96790.63;5032482;28;105202;-62
2022/08/07 08:02:42;;;;;;;6.07;5.23;;;;;;;19.64;100.00;96793.41;5029333;28;101885;-62
2022/08/07 08:05:10;;;;;;;5.27;4.73;;;;;;;19.64;100.00;96796.09;5029738;28;104790;-62
2022/08/07 08:07:40;;;;;;;5.93;4.73;;;;;;;19.75;100.00;96802.09;5028254;27;105996;-62
2022/08/07 08:10:09;;;;;;;5.00;4.60;;;;;;;19.75;100.00;96792.13;5029604;28;102095;-62
2022/08/07 08:12:37;;;;;;;5.17;4.70;;;;;;;19.94;100.00;96800.16;5029586;28;105039;-62
2022/08/07 08:15:05;;;;;;;4.90;4.50;;;;;;;20.10;100.00;96804.19;5028308;28;103952;-62
2022/08/07 08:17:36;;;;;;;5.03;4.57;;;;;;;20.08;100.00;96806.38;5029625;28;101828;-62
2022/08/07 08:20:07;;;;;;;5.00;4.60;;;;;;;20.08;100.00;96801.78;5032469;28;105175;-62
2022/08/07 08:28:15;;;;;;;4.90;4.60;;;;;;;20.41;100.00;96808.66;5028310;28;105239;-62
2022/08/07 08:30:45;;;;;;;4.43;4.13;;;;;;;20.30;100.00;96817.25;5029188;28;101878;-62
2022/08/07 08:33:18;;;;;;;4.40;4.00;;;;;;;20.39;100.00;96816.25;5029192;28;105737;-62
2022/08/07 08:35:50;;;;;;;5.17;4.00;;;;;;;20.45;100.00;96819.66;5028558;28;105513;-62
2022/08/07 08:38:21;;;;;;;4.13;3.83;;;;;;;20.46;100.00;96818.53;5029137;28;101766;-62
2022/08/07 08:40:55;;;;;;;4.47;4.07;;;;;;;20.34;100.00;96812.88;5029317;28;105046;-62
2022/08/07 08:43:31;;;;;;;4.23;3.93;;;;;;;20.31;100.00;96821.56;5031990;28;105732;-62
2022/08/07 08:46:17;;;;;;;4.17;3.77;;;;;;;20.48;100.00;96814.44;5029183;28;105217;-62
2022/08/07 08:48:54;;;;;;;6.13;3.80;;;;;;;20.63;100.00;96818.72;5028221;28;104318;-62
2022/08/07 08:51:29;;;;;;;5.70;5.10;;;;;;;20.86;100.00;96814.94;5030673;28;101756;-62
2022/08/07 08:54:04;;;;;;;5.33;4.00;;;;;;;20.87;100.00;96816.56;5029129;28;105162;-62
2022/08/07 08:56:36;;;;;;;3.53;3.20;;;;;;;21.17;100.00;96819.41;5028139;28;104193;-62
2022/08/07 08:59:08;;;;;;;3.23;3.03;;;;;;;21.08;100.00;96817.75;5028777;28;101872;-62
2022/08/07 09:01:44;;;;;;;3.30;3.10;;;;;;;21.12;100.00;96818.72;5028929;28;103976;-62
2022/08/07 09:04:18;;;;;;;3.43;3.13;;;;;;;21.06;100.00;96814.53;5028255;28;106816;-62
2022/08/07 09:06:57;;;;;;;3.47;3.23;;;;;;;21.13;100.00;96812.19;5032387;28;102320;-62
2022/08/07 09:09:39;;;;;;;3.17;2.93;;;;;;;21.24;100.00;96819.75;5061925;27;105387;-62
2022/08/07 09:12:17;;;;;;;3.20;3.00;;;;;;;21.38;100.00;96817.81;5028665;28;101806;-62
2022/08/07 09:14:58;;;;;;;3.37;3.07;;;;;;;21.50;100.00;96817.22;5028649;28;105186;-62
2022/08/07 09:17:37;;;;;;;3.30;2.97;;;;;;;21.67;100.00;96810.03;5027856;28;103727;-62
2022/08/07 09:20:18;;;;;;;2.60;2.40;;;;;;;21.85;100.00;96819.06;5031089;28;101892;-62
2022/08/07 09:22:57;;;;;;;3.53;2.70;;;;;;;21.92;100.00;96811.28;5032286;28;104053;-62
2022/08/07 09:25:33;;;;;;;3.47;2.80;;;;;;;21.97;100.00;96808.44;5031470;28;103897;-62
2022/08/07 09:28:04;;;;;;;2.80;2.60;;;;;;;21.93;100.00;96805.56;5032036;28;101921;-62
2022/08/07 09:30:55;;;;;;;2.60;2.40;;;;;;;22.01;100.00;96798.59;5036356;27;102793;-62
2022/08/07 09:33:39;;;;;;;2.80;2.60;;;;;;;22.25;100.00;96796.28;5031998;28;101847;-62
2022/08/07 09:36:12;;;;;;;2.20;2.10;;;;;;;22.30;100.00;96804.28;5032089;28;103834;-62
2022/08/07 09:38:49;;;;;;;2.67;2.47;;;;;;;22.53;100.00;96803.06;5031501;28;106012;-62
2022/08/07 09:41:23;;;;;;;2.53;2.33;;;;;;;22.57;100.00;96793.97;5031840;28;101891;-62
2022/08/07 09:44:01;;;;;;;4.30;2.50;;;;;;;22.69;100.00;96793.38;5031905;28;104906;-62
2022/08/07 09:46:41;;;;;;;4.87;2.20;;;;;;;22.92;100.00;96792.13;5031326;28;104690;-62
2022/08/07 09:49:24;;;;;;;3.00;2.10;;;;;;;23.04;100.00;96789.59;5065622;27;101830;-62
2022/08/07 09:52:03;;;;;;;1.93;1.83;;;;;;;23.13;100.00;96795.78;5031968;28;105808;-62
2022/08/07 09:54:39;;;;;;;1.80;1.70;;;;;;;23.22;100.00;96786.53;5034628;28;105137;-62
2022/08/07 09:57:38;;;;;;;2.00;1.90;;;;;;;23.38;100.00;96784.16;5065922;27;105175;-62
2022/08/07 10:00:09;;;;;;;2.10;1.90;;;;;;;23.40;100.00;96790.03;5031112;28;104163;-62
2022/08/07 10:02:56;;;;;;;2.07;1.97;;;;;;;23.25;100.00;96785.91;5031459;28;102168;-62
2022/08/07 10:05:36;;;;;;;1.60;1.50;;;;;;;23.01;100.00;96780.16;5031675;28;104737;-62
2022/08/07 10:08:18;;;;;;;1.70;1.60;;;;;;;23.38;100.00;96789.59;5030994;28;103842;-62
2022/08/07 10:10:53;;;;;;;1.90;1.80;;;;;;;23.61;100.00;96777.38;5031593;28;101835;-62
2022/08/07 10:13:36;;;;;;;2.13;1.77;;;;;;;23.44;100.00;96782.88;5031476;28;105261;-62
2022/08/07 10:16:14;;;;;;;2.50;1.80;;;;;;;23.43;100.00;96782.06;5030367;28;104119;-62
2022/08/07 10:19:07;;;;;;;1.90;1.80;;;;;;;23.49;100.00;96785.41;5034840;28;101817;-62
2022/08/07 10:21:46;;;;;;;3.20;1.90;;;;;;;23.61;100.00;96769.25;5032381;28;102763;-62
2022/08/07 10:24:35;;;;;;;2.00;1.90;;;;;;;23.67;100.00;96765.22;5032397;28;101869;-62
2022/08/07 10:27:21;;;;;;;1.70;1.60;;;;;;;24.11;100.00;96757.44;5032575;27;102354;-62
2022/08/07 10:30:08;;;;;;;1.70;1.60;;;;;;;24.34;100.00;96760.66;5030030;27;105436;-62
2022/08/07 10:32:54;;;;;;;1.93;1.73;;;;;;;24.43;100.00;96764.13;5031152;28;101811;-62
2022/08/07 10:35:28;;;;;;;1.53;1.43;;;;;;;24.60;100.00;96764.84;5031122;28;104789;-62
2022/08/07 10:38:19;;;;;;;1.60;1.50;;;;;;;24.83;100.00;96760.66;5030574;28;105693;-62
2022/08/07 10:40:52;;;;;;;1.80;1.70;;;;;;;24.89;100.00;96761.25;5034222;28;101943;-62
2022/08/07 10:43:27;;;;;;;1.77;1.43;;;;;;;24.60;100.00;96761.31;5030481;28;103884;-62
2022/08/07 10:46:00;;;;;;;1.90;1.80;;;;;;;24.58;100.00;96758.13;5030896;28;101918;-62
2022/08/07 10:48:36;;;;;;;2.37;1.50;;;;;;;24.64;100.00;96751.38;5032497;27;102847;-62
2022/08/07 10:51:09;;;;;;;1.50;1.40;;;;;;;25.14;100.00;96752.09;5030274;28;106024;-62
2022/08/07 10:53:42;;;;;;;1.30;1.30;;;;;;;25.58;100.00;96754.06;5030652;28;101821;-62
2022/08/07 10:56:22;;;;;;;2.83;1.50;;;;;;;25.34;100.00;96754.03;5030798;28;105327;-62
2022/08/07 10:59:06;;;;;;;1.63;1.37;;;;;;;25.40;100.00;96750.72;5030293;28;105674;-62
2022/08/07 11:01:41;;;;;;;1.80;1.50;;;;;;;25.64;100.00;96741.81;5030826;28;101934;-62
2022/08/07 11:04:20;;;;;;;2.07;1.50;;;;;;;26.00;98.43;96744.66;5033574;28;105733;-62
2022/08/07 11:06:59;;;;;;;2.00;1.80;;;;;;;26.38;96.26;96740.41;5030599;28;101970;-62
2022/08/07 11:09:31;;;;;;;1.93;1.40;;;;;;;26.83;96.99;96729.34;5030436;28;104738;-62
2022/08/07 11:12:02;;;;;;;2.60;1.57;;;;;;;26.54;97.67;96732.34;5029978;28;104242;-62
2022/08/07 11:14:39;;;;;;;3.33;1.77;;;;;;;26.17;94.70;96728.88;5030634;28;101806;-62
2022/08/07 11:17:13;;;;;;;1.67;1.57;;;;;;;26.62;96.69;96734.16;5030352;28;105504;-62
2022/08/07 11:19:48;;;;;;;2.93;1.70;;;;;;;26.16;93.50;96727.25;5031219;28;102825;-62
2022/08/07 11:22:23;;;;;;;1.70;1.60;;;;;;;26.44;100.00;96727.38;5030311;28;101937;-62
2022/08/07 11:24:57;;;;;;;2.60;1.50;;;;;;;26.66;100.00;96726.91;5029845;28;105267;-62
2022/08/07 11:27:30;;;;;;;2.33;1.60;;;;;;;26.79;93.86;96731.19;5032831;28;105455;-62
2022/08/07 11:30:04;;;;;;;2.17;1.50;;;;;;;27.07;89.69;96721.06;5030182;28;105356;-62
2022/08/07 11:32:37;;;;;;;1.70;1.60;;;;;;;27.06;92.11;96719.47;5029653;28;105778;-62
2022/08/07 11:35:09;;;;;;;1.70;1.60;;;;;;;27.38;86.25;96713.81;5030188;28;101795;-63
2022/08/07 11:38:01;;;;;;;1.30;1.20;;;;;;;27.07;90.27;96726.53;5031695;28;102325;-62
2022/08/07 11:40:39;;;;;;;1.60;1.50;;;;;;;27.07;86.30;96718.34;5030847;28;102833;-62
2022/08/07 11:43:15;;;;;;;1.77;1.63;;;;;;;27.24;87.45;96715.38;5030632;27;101683;-62
2022/08/07 11:46:05;;;;;;;1.93;1.70;;;;;;;26.88;90.18;96715.47;5031689;27;102262;-60